Time;durP1;ratioP1;P1;durP2;ratioP2;P2;SDS_P1;SDS_P2;PMS_P1;PMS_P2;Temp;Humidity;BMP_temperature;BMP_pressure;BME280_temperature;BME280_humidity;BME280_pressure;Samples;Min_cycle;Max_cycle;Signal;HPM_P1;HPM_P2
2023/06/10 00:00:16;;;;;;;2.08;1.05;;;;;;;;;;20994506;28;20060;-68
2023/06/10 00:10:17;;;;;;;1.13;0.65;;;;;;;;;;20995440;28;20044;-68
2023/06/10 00:20:21;;;;;;;3.20;0.60;;;;;;;;;;21003205;28;20047;-68
2023/06/10 00:30:22;;;;;;;3.22;1.02;;;;;;;;;;21009237;28;20057;-69
2023/06/10 00:40:23;;;;;;;3.33;1.48;;;;;;;;;;21009070;28;20040;-68
2023/06/10 00:50:24;;;;;;;1.70;0.70;;;;;;;;;;21008430;28;20052;-68
2023/06/10 01:00:26;;;;;;;0.88;0.55;;;;;;;;;;21007482;28;20041;-69
2023/06/10 01:10:42;;;;;;;1.38;0.60;;;;;;;;;;21006626;28;20041;-70
2023/06/10 01:20:44;;;;;;;2.38;0.70;;;;;;;;;;21005940;28;20044;-70
2023/06/10 01:30:57;;;;;;;1.83;0.50;;;;;;;;;;21005221;28;20504;-69
2023/06/10 01:40:58;;;;;;;0.73;0.50;;;;;;;;;;21003356;28;20067;-68
2023/06/10 01:50:59;;;;;;;3.00;0.57;;;;;;;;;;21003643;28;20072;-69
2023/06/10 02:01:00;;;;;;;2.63;0.60;;;;;;;;;;21002652;28;20478;-68
2023/06/10 02:11:01;;;;;;;2.67;1.30;;;;;;;;;;21000527;28;20045;-69
2023/06/10 02:21:03;;;;;;;2.30;0.80;;;;;;;;;;21000891;28;20047;-68
2023/06/10 02:31:04;;;;;;;2.83;0.77;;;;;;;;;;20999585;28;20099;-68
2023/06/10 02:41:05;;;;;;;1.63;0.60;;;;;;;;;;20997459;28;20128;-68
2023/06/10 02:51:06;;;;;;;2.13;0.52;;;;;;;;;;20997683;28;20044;-69
2023/06/10 03:01:09;;;;;;;1.23;0.50;;;;;;;;;;20997092;28;20045;-68
2023/06/10 03:11:10;;;;;;;1.40;0.60;;;;;;;;;;20997816;28;20115;-69
2023/06/10 03:21:12;;;;;;;1.63;0.50;;;;;;;;;;20997230;28;20395;-69
2023/06/10 03:31:13;;;;;;;3.10;1.60;;;;;;;;;;20996111;28;20143;-69
2023/06/10 03:41:14;;;;;;;3.47;0.90;;;;;;;;;;20996416;28;20051;-68
2023/06/10 03:51:15;;;;;;;1.70;0.57;;;;;;;;;;20998186;28;20056;-68
2023/06/10 04:01:17;;;;;;;1.33;0.80;;;;;;;;;;21010892;28;20041;-69
2023/06/10 04:11:19;;;;;;;2.45;0.80;;;;;;;;;;21010243;28;20136;-69
2023/06/10 04:21:20;;;;;;;1.00;0.50;;;;;;;;;;21010753;28;20119;-68
2023/06/10 04:31:21;;;;;;;1.58;0.90;;;;;;;;;;21009356;28;20524;-69
2023/06/10 04:41:22;;;;;;;3.17;1.02;;;;;;;;;;21009080;28;20040;-69
2023/06/10 04:51:23;;;;;;;4.25;1.17;;;;;;;;;;21008355;28;20129;-69
2023/06/10 05:01:24;;;;;;;1.65;0.80;;;;;;;;;;21005952;28;20040;-69
2023/06/10 05:11:25;;;;;;;1.83;1.00;;;;;;;;;;21006548;28;20460;-69
2023/06/10 05:21:26;;;;;;;5.65;1.00;;;;;;;;;;21004686;28;20048;-69
2023/06/10 05:31:27;;;;;;;2.97;1.33;;;;;;;;;;21003764;28;20063;-69
2023/06/10 05:41:29;;;;;;;4.10;1.42;;;;;;;;;;21002497;28;20056;-68
2023/06/10 05:51:30;;;;;;;3.83;1.48;;;;;;;;;;21004043;28;20052;-69
2023/06/10 06:01:31;;;;;;;2.95;1.42;;;;;;;;;;21000703;28;20051;-68
2023/06/10 06:11:34;;;;;;;2.55;1.33;;;;;;;;;;21001610;28;20048;-68
2023/06/10 06:21:35;;;;;;;2.42;1.38;;;;;;;;;;20999797;28;20046;-69
2023/06/10 06:31:36;;;;;;;2.45;1.20;;;;;;;;;;20998607;28;20066;-69
2023/06/10 06:41:37;;;;;;;3.42;1.25;;;;;;;;;;20998510;28;20150;-70
2023/06/10 06:51:38;;;;;;;4.70;2.38;;;;;;;;;;20997933;28;20587;-69
2023/06/10 07:01:40;;;;;;;3.60;1.40;;;;;;;;;;20996761;28;20174;-69
2023/06/10 07:11:41;;;;;;;2.28;1.17;;;;;;;;;;20996927;28;20083;-69
2023/06/10 07:21:42;;;;;;;1.40;0.95;;;;;;;;;;20995918;28;20090;-69
2023/06/10 07:31:43;;;;;;;2.25;1.35;;;;;;;;;;20994401;28;20128;-69
2023/06/10 07:41:44;;;;;;;1.92;1.30;;;;;;;;;;20995173;28;20051;-70
2023/06/10 07:51:45;;;;;;;3.25;1.30;;;;;;;;;;20995178;28;20064;-69
2023/06/10 08:01:47;;;;;;;3.42;1.45;;;;;;;;;;20993320;28;20047;-69
2023/06/10 08:11:48;;;;;;;2.40;1.23;;;;;;;;;;20994019;28;20052;-69
2023/06/10 08:21:49;;;;;;;3.35;1.33;;;;;;;;;;20993621;28;20095;-69
2023/06/10 08:31:50;;;;;;;4.47;1.67;;;;;;;;;;20993598;28;20091;-69
2023/06/10 08:42:11;;;;;;;4.57;2.05;;;;;;;;;;21001705;28;20041;-61
2023/06/10 08:52:17;;;;;;;2.78;1.50;;;;;;;;;;20984465;28;20052;-63
2023/06/10 09:02:19;;;;;;;4.93;2.10;;;;;;;;;;20961680;28;20041;-65
2023/06/10 09:12:20;;;;;;;4.25;1.67;;;;;;;;;;20940757;28;20049;-63
2023/06/10 09:22:26;;;;;;;5.03;2.40;;;;;;;;;;20912128;28;20080;-70
2023/06/10 09:32:27;;;;;;;8.38;3.40;;;;;;;;;;20906040;28;20067;-70
2023/06/10 09:42:32;;;;;;;2.95;1.00;;;;;;;;;;20991165;28;20106;-65
2023/06/10 09:52:33;;;;;;;4.63;1.60;;;;;;;;;;21001986;28;20044;-66
2023/06/10 10:02:46;;;;;;;3.17;1.40;;;;;;;;;;20993686;28;20049;-68
2023/06/10 10:12:47;;;;;;;6.85;3.30;;;;;;;;;;20932395;28;20464;-64
2023/06/10 10:22:52;;;;;;;4.63;1.90;;;;;;;;;;20999098;28;20040;-67
2023/06/10 10:32:59;;;;;;;4.03;1.27;;;;;;;;;;20996122;28;20102;-66
2023/06/10 10:43:00;;;;;;;3.93;1.70;;;;;;;;;;20990466;28;20044;-66
2023/06/10 10:53:02;;;;;;;1.45;0.90;;;;;;;;;;20996830;28;20071;-67
2023/06/10 11:03:04;;;;;;;3.60;1.10;;;;;;;;;;20997647;28;20123;-66
2023/06/10 11:13:09;;;;;;;2.72;1.60;;;;;;;;;;20997673;28;20063;-67
2023/06/10 11:23:10;;;;;;;1.48;0.52;;;;;;;;;;20997361;28;20055;-68
2023/06/10 11:33:15;;;;;;;2.40;1.17;;;;;;;;;;20995911;28;20048;-67
2023/06/10 11:43:17;;;;;;;2.97;1.00;;;;;;;;;;20996532;28;20139;-68
2023/06/10 11:53:19;;;;;;;3.10;1.40;;;;;;;;;;20996106;28;20051;-67
2023/06/10 12:03:22;;;;;;;1.95;1.20;;;;;;;;;;20995399;28;20055;-66
2023/06/10 12:13:23;;;;;;;1.38;0.90;;;;;;;;;;20998698;28;20048;-66
2023/06/10 12:23:25;;;;;;;3.75;2.47;;;;;;;;;;21010511;28;20392;-68
2023/06/10 12:33:26;;;;;;;2.42;1.02;;;;;;;;;;21007354;28;20102;-69
2023/06/10 12:43:27;;;;;;;3.30;1.48;;;;;;;;;;21006746;28;20048;-68
2023/06/10 12:53:29;;;;;;;2.80;1.27;;;;;;;;;;20980343;28;20048;-61
2023/06/10 13:03:30;;;;;;;2.15;1.13;;;;;;;;;;20927713;28;20456;-66
2023/06/10 13:13:31;;;;;;;1.95;0.90;;;;;;;;;;20913664;28;20048;-64
2023/06/10 13:23:32;;;;;;;1.63;0.75;;;;;;;;;;20906391;28;20041;-70
2023/06/10 13:33:33;;;;;;;1.52;0.73;;;;;;;;;;20913178;28;20095;-63
2023/06/10 13:43:34;;;;;;;1.95;0.50;;;;;;;;;;20919960;28;20052;-65
2023/06/10 13:53:36;;;;;;;2.00;1.05;;;;;;;;;;20918504;28;20127;-65
2023/06/10 14:03:37;;;;;;;2.78;0.80;;;;;;;;;;20919825;28;20544;-65
2023/06/10 14:13:39;;;;;;;2.38;0.60;;;;;;;;;;20918053;28;20045;-65
2023/06/10 14:23:41;;;;;;;3.22;0.77;;;;;;;;;;20918377;28;20482;-65
2023/06/10 14:33:43;;;;;;;1.30;0.73;;;;;;;;;;20917040;28;20159;-64
2023/06/10 14:43:44;;;;;;;1.98;0.85;;;;;;;;;;20916431;28;20045;-65
2023/06/10 14:53:46;;;;;;;2.15;0.80;;;;;;;;;;20915928;28;20053;-65
2023/06/10 15:03:47;;;;;;;1.83;0.65;;;;;;;;;;20914385;28;20048;-66
2023/06/10 15:13:48;;;;;;;1.42;0.50;;;;;;;;;;20915208;28;20052;-65
2023/06/10 15:23:51;;;;;;;1.50;0.55;;;;;;;;;;20912915;28;20052;-65
2023/06/10 15:33:52;;;;;;;3.92;1.30;;;;;;;;;;20912967;28;20053;-64
2023/06/10 15:43:53;;;;;;;1.65;0.60;;;;;;;;;;20912138;28;20127;-65
2023/06/10 15:53:54;;;;;;;1.42;0.90;;;;;;;;;;20927893;28;20406;-65
2023/06/10 16:03:55;;;;;;;2.90;1.58;;;;;;;;;;20928120;28;20052;-65
2023/06/10 16:13:56;;;;;;;3.08;1.30;;;;;;;;;;20928957;28;20067;-65
2023/06/10 16:23:57;;;;;;;1.23;0.40;;;;;;;;;;20927963;28;20045;-65
2023/06/10 16:33:58;;;;;;;0.85;0.38;;;;;;;;;;20925262;28;20106;-64
2023/06/10 16:44:00;;;;;;;3.72;1.42;;;;;;;;;;20925089;28;20056;-65
2023/06/10 16:54:01;;;;;;;2.55;0.70;;;;;;;;;;20925295;28;20055;-64
2023/06/10 17:04:02;;;;;;;1.50;0.80;;;;;;;;;;20923903;28;20128;-65
2023/06/10 17:14:03;;;;;;;2.15;0.73;;;;;;;;;;20924228;28;20119;-64
2023/06/10 17:24:04;;;;;;;1.90;0.60;;;;;;;;;;20922122;28;20091;-64
2023/06/10 17:34:05;;;;;;;1.63;0.77;;;;;;;;;;20921184;28;20092;-64
2023/06/10 17:44:07;;;;;;;1.63;0.73;;;;;;;;;;20920613;28;20045;-66
2023/06/10 17:54:08;;;;;;;2.65;1.05;;;;;;;;;;20920781;28;20130;-65
2023/06/10 18:04:09;;;;;;;2.35;1.00;;;;;;;;;;20920128;28;20045;-65
2023/06/10 18:14:11;;;;;;;4.18;1.42;;;;;;;;;;20917098;28;20045;-65
2023/06/10 18:24:12;;;;;;;2.25;1.40;;;;;;;;;;20918641;28;20099;-65
2023/06/10 18:34:13;;;;;;;1.98;1.20;;;;;;;;;;20918244;28;20053;-65
2023/06/10 18:44:14;;;;;;;3.03;1.60;;;;;;;;;;20916735;28;20045;-65
2023/06/10 18:54:15;;;;;;;2.53;1.00;;;;;;;;;;20916269;28;20044;-65
2023/06/10 19:04:16;;;;;;;7.13;1.20;;;;;;;;;;20915577;28;20114;-64
2023/06/10 19:14:18;;;;;;;4.85;2.40;;;;;;;;;;20914555;28;20521;-65
2023/06/10 19:24:19;;;;;;;5.72;1.75;;;;;;;;;;20912689;28;20037;-65
2023/06/10 19:34:20;;;;;;;3.38;1.13;;;;;;;;;;20912556;28;20061;-65
2023/06/10 19:44:21;;;;;;;3.00;1.35;;;;;;;;;;20913475;28;20052;-64
2023/06/10 19:54:22;;;;;;;4.15;2.50;;;;;;;;;;20911745;28;20053;-66
2023/06/10 20:04:23;;;;;;;8.57;4.88;;;;;;;;;;20913136;28;20041;-64
2023/06/10 20:14:25;;;;;;;4.10;1.45;;;;;;;;;;20911284;28;20199;-65
2023/06/10 20:24:26;;;;;;;6.32;3.40;;;;;;;;;;20911834;28;20045;-66
2023/06/10 20:34:27;;;;;;;3.00;1.30;;;;;;;;;;20913253;28;20057;-65
2023/06/10 20:44:28;;;;;;;3.13;1.65;;;;;;;;;;20924687;28;20048;-65
2023/06/10 20:54:29;;;;;;;4.65;1.23;;;;;;;;;;20924516;28;20516;-64
2023/06/10 21:04:30;;;;;;;3.22;1.00;;;;;;;;;;20923536;28;20482;-66
2023/06/10 21:14:31;;;;;;;1.75;1.33;;;;;;;;;;20921542;28;20053;-65
2023/06/10 21:24:32;;;;;;;4.63;1.33;;;;;;;;;;20920966;28;20045;-64
2023/06/10 21:34:33;;;;;;;3.90;1.50;;;;;;;;;;20919792;28;20076;-65
2023/06/10 21:44:35;;;;;;;2.92;1.40;;;;;;;;;;20921298;28;20044;-64
2023/06/10 21:54:36;;;;;;;3.65;1.55;;;;;;;;;;20919903;28;20056;-64
2023/06/10 22:04:37;;;;;;;2.58;1.00;;;;;;;;;;20919035;28;20099;-65
2023/06/10 22:14:38;;;;;;;3.22;1.17;;;;;;;;;;20919168;28;20045;-65
2023/06/10 22:24:39;;;;;;;3.95;1.02;;;;;;;;;;20918859;28;20118;-65
2023/06/10 22:34:41;;;;;;;3.47;1.52;;;;;;;;;;20916822;28;20073;-66
2023/06/10 22:44:42;;;;;;;3.08;1.27;;;;;;;;;;20917399;28;20049;-64
2023/06/10 22:54:44;;;;;;;3.13;1.38;;;;;;;;;;20916437;28;20509;-65
2023/06/10 23:04:45;;;;;;;2.10;1.13;;;;;;;;;;20915551;28;20120;-64
2023/06/10 23:14:46;;;;;;;2.60;1.30;;;;;;;;;;20915303;28;20080;-65
2023/06/10 23:24:47;;;;;;;4.47;2.05;;;;;;;;;;20914701;28;20404;-64
2023/06/10 23:34:48;;;;;;;6.88;2.95;;;;;;;;;;20915132;28;20049;-64
2023/06/10 23:44:49;;;;;;;3.13;1.10;;;;;;;;;;20913769;28;20053;-64
2023/06/10 23:54:50;;;;;;;2.35;0.95;;;;;;;;;;20913441;28;20465;-65
